createdAt,value
2018-08-25T00:01:26.541Z,100632.63
2018-08-25T00:03:55.130Z,100628.52
2018-08-25T00:06:23.611Z,100627.25
2018-08-25T00:08:52.266Z,100618.20
2018-08-25T00:11:20.754Z,100618.08
2018-08-25T00:13:49.478Z,100622.99
2018-08-25T00:16:18.108Z,100605.63
2018-08-25T00:18:46.602Z,100609.08
2018-08-25T00:21:15.131Z,100594.62
2018-08-25T00:23:43.760Z,100593.17
2018-08-25T00:26:12.470Z,100586.72
2018-08-25T00:28:40.952Z,100582.98
2018-08-25T00:31:14.892Z,100584.11
2018-08-25T00:33:43.543Z,100585.09
2018-08-25T00:36:12.447Z,100584.20
2018-08-25T00:41:08.399Z,100582.81
2018-08-25T00:43:36.946Z,100580.80
2018-08-25T00:46:05.541Z,100582.02
2018-08-25T00:48:34.166Z,100575.28
2018-08-25T00:51:03.006Z,100571.89
2018-08-25T00:53:31.756Z,100585.16
2018-08-25T00:56:00.266Z,100575.17
2018-08-25T00:58:28.922Z,100583.35
2018-08-25T01:00:57.460Z,100585.58
2018-08-25T01:03:26.543Z,100576.83
2018-08-25T01:05:55.056Z,100562.77
2018-08-25T01:08:24.021Z,100557.37
2018-08-25T01:10:52.506Z,100553.30
2018-08-25T01:13:21.186Z,100544.12
2018-08-25T01:15:49.735Z,100544.20
2018-08-25T01:18:18.278Z,100538.23
2018-08-25T01:20:48.669Z,100535.95
2018-08-25T01:23:17.243Z,100534.83
2018-08-25T01:25:45.906Z,100529.40
2018-08-25T01:28:14.480Z,100522.25
2018-08-25T01:30:43.001Z,100516.25
2018-08-25T01:33:11.801Z,100513.34
2018-08-25T01:35:40.296Z,100512.61
2018-08-25T01:38:09.021Z,100508.61
2018-08-25T01:40:37.665Z,100516.45
2018-08-25T01:43:06.220Z,100524.28
2018-08-25T01:45:34.808Z,100524.16
2018-08-25T01:48:03.314Z,100513.84
2018-08-25T01:50:31.771Z,100516.09
2018-08-25T01:53:00.293Z,100508.64
2018-08-25T01:55:28.855Z,100503.47
2018-08-25T01:57:57.388Z,100496.76
2018-08-25T02:00:25.879Z,100497.28
2018-08-25T02:02:54.692Z,100495.80
2018-08-25T02:05:24.378Z,100492.62
2018-08-25T02:07:52.871Z,100481.02
2018-08-25T02:10:21.446Z,100480.93
2018-08-25T02:12:50.216Z,100473.84
2018-08-25T02:15:18.860Z,100471.30
2018-08-25T02:17:47.422Z,100462.33
2018-08-25T02:20:16.244Z,100460.61
2018-08-25T02:22:46.186Z,100454.86
2018-08-25T02:25:14.896Z,100453.40
2018-08-25T02:27:43.380Z,100449.92
2018-08-25T02:30:11.956Z,100443.20
2018-08-25T02:32:40.564Z,100439.66
2018-08-25T02:35:09.282Z,100435.03
2018-08-25T02:37:37.840Z,100438.46
2018-08-25T02:40:06.698Z,100435.39
2018-08-25T02:42:35.816Z,100442.14
2018-08-25T02:45:04.875Z,100451.27
2018-08-25T02:47:34.149Z,100441.47
2018-08-25T02:50:02.843Z,100442.06
2018-08-25T02:52:31.686Z,100447.44
2018-08-25T02:55:00.205Z,100433.31
2018-08-25T02:57:28.747Z,100430.37
2018-08-25T02:59:57.261Z,100435.78
2018-08-25T03:02:25.734Z,100430.80
2018-08-25T03:04:54.321Z,100445.69
2018-08-25T03:07:28.971Z,100457.27
2018-08-25T03:09:57.572Z,100453.47
2018-08-25T03:12:26.207Z,100444.95
2018-08-25T03:14:54.944Z,100442.49
2018-08-25T03:17:23.766Z,100443.33
2018-08-25T03:19:52.827Z,100446.34
2018-08-25T03:22:21.381Z,100436.52
2018-08-25T03:24:50.058Z,100426.04
2018-08-25T03:27:19.190Z,100420.47
2018-08-25T03:29:47.985Z,100419.80
2018-08-25T03:32:16.529Z,100401.09
2018-08-25T03:34:45.013Z,100406.77
2018-08-25T03:37:13.690Z,100392.99
2018-08-25T03:39:42.189Z,100385.58
2018-08-25T03:42:10.673Z,100375.53
2018-08-25T03:44:39.424Z,100376.59
2018-08-25T03:47:07.886Z,100369.05
2018-08-25T03:49:37.314Z,100365.63
2018-08-25T03:52:06.018Z,100362.64
2018-08-25T03:54:34.492Z,100360.80
2018-08-25T03:57:03.269Z,100365.63
2018-08-25T03:59:31.761Z,100360.84
2018-08-25T04:02:00.301Z,100362.23
2018-08-25T04:04:28.916Z,100365.05
2018-08-25T04:06:57.423Z,100356.36
2018-08-25T04:09:26.237Z,100354.74
2018-08-25T04:11:54.813Z,100353.61
2018-08-25T04:14:23.303Z,100353.66
2018-08-25T04:16:52.107Z,100349.28
2018-08-25T04:19:21.931Z,100341.45
2018-08-25T04:21:51.424Z,100341.08
2018-08-25T04:24:19.997Z,100337.02
2018-08-25T04:26:48.539Z,100335.20
2018-08-25T04:29:17.090Z,100333.02
2018-08-25T04:31:45.610Z,100328.16
2018-08-25T04:34:14.222Z,100330.02
2018-08-25T04:36:42.842Z,100325.95
2018-08-25T04:39:12.495Z,100328.92
2018-08-25T04:41:41.042Z,100323.53
2018-08-25T04:44:10.069Z,100323.91
2018-08-25T04:46:39.146Z,100325.82
2018-08-25T04:49:08.001Z,100328.70
2018-08-25T04:51:36.554Z,100327.94
2018-08-25T04:54:05.170Z,100322.34
2018-08-25T04:56:35.022Z,100328.56
2018-08-25T04:59:03.543Z,100320.75
2018-08-25T05:01:32.416Z,100321.55
2018-08-25T05:04:01.223Z,100316.52
2018-08-25T05:06:30.063Z,100326.41
2018-08-25T05:08:59.722Z,100318.84
2018-08-25T05:11:28.323Z,100335.66
2018-08-25T05:13:56.844Z,100332.67
2018-08-25T05:16:25.436Z,100341.33
2018-08-25T05:18:53.969Z,100321.48
2018-08-25T05:21:22.619Z,100316.69
2018-08-25T05:23:51.157Z,100323.47
2018-08-25T05:26:20.109Z,100335.16
2018-08-25T05:28:48.592Z,100346.44
2018-08-25T05:31:17.584Z,100350.91
2018-08-25T05:33:46.118Z,100351.61
2018-08-25T05:36:14.742Z,100350.81
2018-08-25T05:38:43.289Z,100348.19
2018-08-25T05:41:11.808Z,100351.49
2018-08-25T05:43:40.401Z,100352.11
2018-08-25T05:46:09.185Z,100354.27
2018-08-25T05:48:37.998Z,100354.36
2018-08-25T05:51:07.076Z,100354.20
2018-08-25T05:53:35.581Z,100357.33
2018-08-25T05:56:04.113Z,100360.20
2018-08-25T05:58:32.984Z,100362.50
2018-08-25T06:01:01.625Z,100361.58
2018-08-25T06:03:30.364Z,100356.74
2018-08-25T06:05:58.895Z,100357.33
2018-08-25T06:08:27.396Z,100353.20
2018-08-25T06:10:55.964Z,100354.44
2018-08-25T06:13:24.502Z,100359.48
2018-08-25T06:15:52.971Z,100355.36
2018-08-25T06:18:21.504Z,100358.33
2018-08-25T06:20:50.159Z,100365.27
2018-08-25T06:23:18.756Z,100363.53
2018-08-25T06:25:47.432Z,100360.27
2018-08-25T06:28:15.964Z,100360.02
2018-08-25T06:30:44.857Z,100366.98
2018-08-25T06:33:13.368Z,100371.02
2018-08-25T06:35:41.936Z,100371.66
2018-08-25T06:38:10.426Z,100370.84
2018-08-25T06:40:39.841Z,100371.27
2018-08-25T06:43:08.421Z,100374.12
2018-08-25T06:45:37.038Z,100379.17
2018-08-25T06:48:05.703Z,100382.11
2018-08-25T06:50:34.342Z,100382.64
2018-08-25T06:53:02.878Z,100394.02
2018-08-25T06:55:31.710Z,100401.98
2018-08-25T06:58:00.213Z,100402.06
2018-08-25T07:00:28.901Z,100404.48
2018-08-25T07:02:57.432Z,100412.61
2018-08-25T07:05:25.961Z,100418.22
2018-08-25T07:07:54.450Z,100421.41
2018-08-25T07:10:23.401Z,100421.87
2018-08-25T07:12:51.908Z,100426.86
2018-08-25T07:15:20.404Z,100432.54
2018-08-25T07:17:48.892Z,100438.27
2018-08-25T07:20:17.445Z,100446.21
2018-08-25T07:22:45.971Z,100445.27
2018-08-25T07:25:14.446Z,100459.96
2018-08-25T07:27:44.990Z,100457.03
2018-08-25T07:30:13.483Z,100462.91
2018-08-25T07:32:41.958Z,100462.80
2018-08-25T07:35:10.514Z,100462.12
2018-08-25T07:37:39.109Z,100469.05
2018-08-25T07:40:07.790Z,100481.02
2018-08-25T07:42:36.433Z,100490.05
2018-08-25T07:45:05.034Z,100489.65
2018-08-25T07:47:33.554Z,100496.67
2018-08-25T07:50:02.123Z,100499.64
2018-08-25T07:52:30.605Z,100509.09
2018-08-25T07:54:59.207Z,100504.36
2018-08-25T07:57:27.981Z,100513.64
2018-08-25T07:59:56.558Z,100508.09
2018-08-25T08:02:25.245Z,100506.97
2018-08-25T08:04:54.456Z,100517.86
2018-08-25T08:07:23.051Z,100505.39
2018-08-25T08:09:51.718Z,100508.94
2018-08-25T08:12:20.306Z,100504.70
2018-08-25T08:14:48.994Z,100515.19
2018-08-25T08:17:17.599Z,100519.13
2018-08-25T08:19:46.078Z,100520.76
2018-08-25T08:22:14.608Z,100520.95
2018-08-25T08:24:43.172Z,100526.64
2018-08-25T08:27:11.809Z,100539.16
2018-08-25T08:29:40.470Z,100539.44
2018-08-25T08:32:09.165Z,100541.50
2018-08-25T08:34:38.071Z,100546.78
2018-08-25T08:37:07.376Z,100550.27
2018-08-25T08:39:37.642Z,100552.33
2018-08-25T08:42:06.151Z,100557.48
2018-08-25T08:44:34.744Z,100561.52
2018-08-25T08:47:03.530Z,100571.63
2018-08-25T08:49:32.109Z,100587.38
2018-08-25T08:52:00.694Z,100584.16
2018-08-25T08:54:29.234Z,100575.13
2018-08-25T08:56:58.063Z,100574.18
2018-08-25T08:59:26.670Z,100577.33
2018-08-25T09:01:55.169Z,100581.75
2018-08-25T09:04:23.771Z,100581.88
2018-08-25T09:06:52.438Z,100580.09
2018-08-25T09:09:20.983Z,100575.94
2018-08-25T09:11:49.551Z,100578.69
2018-08-25T09:14:18.128Z,100584.64
2018-08-25T09:16:46.697Z,100593.67
2018-08-25T09:19:15.228Z,100589.16
2018-08-25T09:21:43.907Z,100597.03
2018-08-25T09:24:12.462Z,100594.92
2018-08-25T09:26:41.048Z,100605.12
2018-08-25T09:29:09.542Z,100599.32
2018-08-25T09:31:38.085Z,100604.51
2018-08-25T09:34:06.674Z,100601.91
2018-08-25T09:36:35.497Z,100602.58
2018-08-25T09:39:04.447Z,100605.89
2018-08-25T09:41:33.301Z,100597.36
2018-08-25T09:44:01.820Z,100605.25
2018-08-25T09:46:30.781Z,100600.17
2018-08-25T09:48:59.279Z,100600.72
2018-08-25T09:51:28.013Z,100608.64
2018-08-25T09:53:56.687Z,100599.56
2018-08-25T09:56:25.179Z,100604.48
2018-08-25T09:58:53.964Z,100616.33
2018-08-25T10:01:27.959Z,100611.99
2018-08-25T10:03:56.557Z,100603.96
2018-08-25T10:06:25.306Z,100609.34
2018-08-25T10:08:54.274Z,100616.85
2018-08-25T10:11:23.337Z,100621.48
2018-08-25T10:13:51.892Z,100617.37
2018-08-25T10:16:20.561Z,100618.16
2018-08-25T10:18:49.153Z,100618.12
2018-08-25T10:21:17.684Z,100612.45
2018-08-25T10:23:46.254Z,100614.03
2018-08-25T10:26:14.850Z,100609.63
2018-08-25T10:28:43.463Z,100608.28
2018-08-25T10:31:11.962Z,100609.92
2018-08-25T10:33:40.584Z,100618.12
2018-08-25T10:36:09.077Z,100606.47
2018-08-25T10:38:37.694Z,100604.97
2018-08-25T10:41:06.582Z,100605.26
2018-08-25T10:43:35.169Z,100596.31
2018-08-25T10:46:03.696Z,100597.98
2018-08-25T10:48:32.238Z,100598.27
2018-08-25T10:51:01.513Z,100611.38
2018-08-25T10:53:30.024Z,100602.07
2018-08-25T10:55:58.887Z,100602.36
2018-08-25T10:58:27.364Z,100606.49
2018-08-25T11:00:56.006Z,100604.33
2018-08-25T11:03:24.425Z,100611.82
2018-08-25T11:05:52.929Z,100612.15
2018-08-25T11:08:21.406Z,100607.94
2018-08-25T11:10:49.953Z,100613.33
2018-08-25T11:13:18.495Z,100607.08
2018-08-25T11:15:47.026Z,100620.44
2018-08-25T11:18:15.501Z,100638.75
2018-08-25T11:20:44.082Z,100628.59
2018-08-25T11:23:12.718Z,100620.13
2018-08-25T11:25:41.349Z,100624.99
2018-08-25T11:28:10.018Z,100625.31
2018-08-25T11:30:38.617Z,100623.66
2018-08-25T11:33:07.198Z,100628.03
2018-08-25T11:35:35.802Z,100635.38
2018-08-25T11:38:04.421Z,100629.08
2018-08-25T11:40:32.951Z,100638.89
2018-08-25T11:43:02.670Z,100641.22
2018-08-25T11:45:31.458Z,100633.72
2018-08-25T11:48:00.059Z,100631.05
2018-08-25T11:50:28.758Z,100630.23
2018-08-25T11:52:57.406Z,100634.79
2018-08-25T11:55:25.978Z,100663.33
2018-08-25T11:57:54.603Z,100654.57
2018-08-25T12:00:23.185Z,100660.58
2018-08-25T12:02:51.847Z,100662.77
2018-08-25T12:05:20.356Z,100661.36
2018-08-25T12:07:48.897Z,100658.91
2018-08-25T12:10:18.005Z,100658.66
2018-08-25T12:12:46.515Z,100665.10
2018-08-25T12:15:15.155Z,100656.95
2018-08-25T12:17:43.944Z,100650.37
2018-08-25T12:20:12.572Z,100653.25
2018-08-25T12:22:41.106Z,100648.79
2018-08-25T12:25:09.977Z,100648.36
2018-08-25T12:27:38.457Z,100647.89
2018-08-25T12:30:07.532Z,100656.45
2018-08-25T12:32:36.042Z,100672.83
2018-08-25T12:35:04.725Z,100674.19
2018-08-25T12:37:33.270Z,100699.93
2018-08-25T12:40:01.872Z,100687.72
2018-08-25T12:42:30.349Z,100681.73
2018-08-25T12:44:58.940Z,100690.56
2018-08-25T12:47:28.060Z,100686.72
2018-08-25T12:49:57.894Z,100678.71
2018-08-25T12:52:26.465Z,100682.89
2018-08-25T12:54:54.995Z,100681.16
2018-08-25T12:57:23.719Z,100679.95
2018-08-25T12:59:52.242Z,100678.23
2018-08-25T13:02:21.040Z,100686.02
2018-08-25T13:04:49.567Z,100677.23
2018-08-25T13:07:18.054Z,100669.89
2018-08-25T13:09:46.797Z,100678.80
2018-08-25T13:12:15.286Z,100668.81
2018-08-25T13:14:44.370Z,100678.72
2018-08-25T13:17:12.921Z,100668.91
2018-08-25T13:19:41.489Z,100662.57
2018-08-25T13:22:10.182Z,100670.73
2018-08-25T13:24:38.717Z,100662.34
2018-08-25T13:27:07.314Z,100647.72
2018-08-25T13:29:35.825Z,100652.74
2018-08-25T13:32:06.986Z,100665.59
2018-08-25T13:34:35.472Z,100668.84
2018-08-25T13:37:04.076Z,100698.80
2018-08-25T13:39:33.666Z,100729.19
2018-08-25T13:42:02.157Z,100739.88
2018-08-25T13:44:30.790Z,100786.48
2018-08-25T13:46:59.344Z,100819.08
2018-08-25T13:49:28.671Z,100790.03
2018-08-25T13:51:57.179Z,100761.84
2018-08-25T13:54:25.817Z,100773.09
2018-08-25T13:56:54.313Z,100771.05
2018-08-25T13:59:22.842Z,100780.73
2018-08-25T14:01:51.439Z,100778.34
2018-08-25T14:04:20.131Z,100780.01
2018-08-25T14:06:48.673Z,100780.61
2018-08-25T14:09:17.273Z,100779.87
2018-08-25T14:11:45.748Z,100777.66
2018-08-25T14:14:14.412Z,100770.95
2018-08-25T14:16:42.943Z,100773.06
2018-08-25T14:19:11.528Z,100768.41
2018-08-25T14:21:40.097Z,100766.79
2018-08-25T14:24:08.624Z,100779.41
2018-08-25T14:26:37.224Z,100775.83
2018-08-25T14:29:05.974Z,100784.89
2018-08-25T14:31:34.467Z,100787.72
2018-08-25T14:34:03.515Z,100807.77
2018-08-25T14:36:32.075Z,100814.64
2018-08-25T14:39:00.681Z,100829.97
2018-08-25T14:41:29.289Z,100831.25
2018-08-25T14:43:58.328Z,100830.91
2018-08-25T14:46:26.848Z,100824.58
2018-08-25T14:48:55.332Z,100817.21
2018-08-25T14:51:23.843Z,100817.55
2018-08-25T14:53:52.374Z,100816.05
2018-08-25T14:56:20.917Z,100815.25
2018-08-25T14:58:49.435Z,100824.05
2018-08-25T15:01:18.046Z,100820.31
2018-08-25T15:03:46.617Z,100823.95
2018-08-25T15:06:15.190Z,100818.88
2018-08-25T15:08:43.778Z,100815.40
2018-08-25T15:11:12.293Z,100825.22
2018-08-25T15:13:40.947Z,100823.37
2018-08-25T15:16:09.552Z,100825.71
2018-08-25T15:18:38.088Z,100825.25
2018-08-25T15:21:06.819Z,100835.30
2018-08-25T15:23:35.508Z,100832.23
2018-08-25T15:26:05.009Z,100836.78
2018-08-25T15:28:33.798Z,100825.27
2018-08-25T15:31:02.714Z,100830.65
2018-08-25T15:33:31.437Z,100829.31
2018-08-25T15:35:59.932Z,100820.13
2018-08-25T15:38:28.535Z,100825.95
2018-08-25T15:40:57.001Z,100825.28
2018-08-25T15:43:25.545Z,100832.23
2018-08-25T15:45:54.176Z,100831.93
2018-08-25T15:48:22.825Z,100841.03
2018-08-25T15:50:51.373Z,100843.75
2018-08-25T15:53:19.898Z,100839.91
2018-08-25T15:55:48.517Z,100844.42
2018-08-25T15:58:17.067Z,100841.66
2018-08-25T16:00:45.628Z,100850.84
2018-08-25T16:03:14.150Z,100859.70
2018-08-25T16:05:42.875Z,100868.48
2018-08-25T16:08:11.671Z,100878.30
2018-08-25T16:10:40.224Z,100874.85
2018-08-25T16:13:08.808Z,100873.75
2018-08-25T16:15:37.847Z,100881.41
2018-08-25T16:18:06.476Z,100893.42
2018-08-25T16:20:35.156Z,100920.63
2018-08-25T16:23:03.910Z,100911.45
2018-08-25T16:25:32.868Z,100912.61
2018-08-25T16:28:01.341Z,100904.66
2018-08-25T16:30:29.861Z,100906.39
2018-08-25T16:32:58.361Z,100899.28
2018-08-25T16:35:26.874Z,100913.56
2018-08-25T16:37:55.447Z,100911.27
2018-08-25T16:40:24.373Z,100896.12
2018-08-25T16:42:52.911Z,100897.09
2018-08-25T16:45:21.409Z,100897.73
2018-08-25T16:47:49.925Z,100898.86
2018-08-25T16:50:18.410Z,100905.24
2018-08-25T16:52:47.141Z,100908.45
2018-08-25T16:55:15.742Z,100902.69
2018-08-25T16:57:44.256Z,100899.41
2018-08-25T17:00:12.861Z,100902.94
2018-08-25T17:02:41.372Z,100902.25
2018-08-25T17:05:09.965Z,100903.41
2018-08-25T17:07:38.585Z,100901.95
2018-08-25T17:10:07.252Z,100899.35
2018-08-25T17:12:35.909Z,100908.48
2018-08-25T17:15:05.143Z,100911.87
2018-08-25T17:17:33.771Z,100920.49
2018-08-25T17:20:02.523Z,100920.77
2018-08-25T17:22:31.439Z,100932.27
2018-08-25T17:24:59.981Z,100929.77
2018-08-25T17:27:28.662Z,100935.33
2018-08-25T17:29:57.703Z,100930.76
2018-08-25T17:32:27.297Z,100930.19
2018-08-25T17:34:55.855Z,100930.16
2018-08-25T17:37:24.593Z,100945.44
2018-08-25T17:39:53.247Z,100950.59
2018-08-25T17:42:22.070Z,100952.28
2018-08-25T17:44:50.610Z,100952.94
2018-08-25T17:47:19.211Z,100961.61
2018-08-25T17:49:47.761Z,100966.44
2018-08-25T17:52:16.422Z,100972.42
2018-08-25T17:54:44.932Z,100978.73
2018-08-25T17:57:13.771Z,100987.25
2018-08-25T17:59:42.302Z,101000.99
2018-08-25T18:02:10.827Z,101003.98
2018-08-25T18:04:39.369Z,101017.30
2018-08-25T18:07:07.944Z,101008.27
2018-08-25T18:09:36.774Z,101007.99
2018-08-25T18:12:05.396Z,101017.32
2018-08-25T18:14:34.006Z,101022.16
2018-08-25T18:17:02.751Z,101027.78
2018-08-25T18:19:31.365Z,101017.97
2018-08-25T18:21:59.960Z,101029.47
2018-08-25T18:24:28.475Z,101031.33
2018-08-25T18:26:57.412Z,101031.19
2018-08-25T18:29:26.417Z,101031.91
2018-08-25T18:31:55.014Z,101030.97
2018-08-25T18:34:23.581Z,101031.55
2018-08-25T18:36:52.499Z,101032.69
2018-08-25T18:39:20.984Z,101028.89
2018-08-25T18:41:49.483Z,101038.23
2018-08-25T18:44:17.989Z,101042.69
2018-08-25T18:46:46.535Z,101043.83
2018-08-25T18:49:15.101Z,101051.02
2018-08-25T18:51:43.618Z,101050.58
2018-08-25T18:54:12.140Z,101047.81
2018-08-25T18:56:40.628Z,101053.20
2018-08-25T18:59:09.276Z,101054.42
2018-08-25T19:01:37.864Z,101053.98
2018-08-25T19:04:06.783Z,101058.51
2018-08-25T19:06:35.333Z,101051.25
2018-08-25T19:09:05.153Z,101048.33
2018-08-25T19:11:34.062Z,101055.45
2018-08-25T19:14:02.637Z,101060.56
2018-08-25T19:16:31.170Z,101061.20
2018-08-25T19:18:59.767Z,101063.84
2018-08-25T19:21:28.276Z,101057.84
2018-08-25T19:23:56.797Z,101061.94
2018-08-25T19:26:25.287Z,101067.99
2018-08-25T19:28:53.888Z,101066.05
2018-08-25T19:31:22.478Z,101072.52
2018-08-25T19:33:51.252Z,101075.83
2018-08-25T19:36:20.091Z,101079.44
2018-08-25T19:38:48.689Z,101085.50
2018-08-25T19:41:18.159Z,101078.99
2018-08-25T19:43:46.774Z,101087.52
2018-08-25T19:46:15.355Z,101090.73
2018-08-25T19:48:43.948Z,101099.05
2018-08-25T19:51:12.894Z,101089.62
2018-08-25T19:53:41.461Z,101086.02
2018-08-25T19:56:10.171Z,101097.76
2018-08-25T19:58:38.917Z,101090.60
2018-08-25T20:01:07.562Z,101088.59
2018-08-25T20:03:36.051Z,101092.86
2018-08-25T20:06:04.644Z,101099.04
2018-08-25T20:08:33.119Z,101091.58
2018-08-25T20:11:01.782Z,101096.12
2018-08-25T20:13:30.487Z,101096.25
2018-08-25T20:15:59.012Z,101097.30
2018-08-25T20:18:27.629Z,101100.98
2018-08-25T20:20:56.433Z,101104.69
2018-08-25T20:23:24.884Z,101101.52
2018-08-25T20:25:53.426Z,101107.46
2018-08-25T20:28:21.916Z,101111.73
2018-08-25T20:30:50.780Z,101113.16
2018-08-25T20:33:19.248Z,101118.87
2018-08-25T20:35:48.017Z,101117.69
2018-08-25T20:38:16.453Z,101124.90
2018-08-25T20:40:45.026Z,101125.63
2018-08-25T20:43:13.571Z,101126.70
2018-08-25T20:45:42.167Z,101138.27
2018-08-25T20:48:10.767Z,101136.20
2018-08-25T20:50:39.652Z,101138.95
2018-08-25T20:53:08.484Z,101135.19
2018-08-25T20:55:37.160Z,101135.47
2018-08-25T20:58:06.265Z,101135.78
2018-08-25T21:00:34.890Z,101131.87
2018-08-25T21:03:03.466Z,101130.91
2018-08-25T21:05:31.964Z,101127.61
2018-08-25T21:08:00.509Z,101129.55
2018-08-25T21:10:29.068Z,101133.30
2018-08-25T21:12:57.617Z,101134.19
2018-08-25T21:15:26.185Z,101135.31
2018-08-25T21:17:55.353Z,101130.96
2018-08-25T21:20:23.874Z,101132.22
2018-08-25T21:22:52.404Z,101123.58
2018-08-25T21:25:21.258Z,101121.83
2018-08-25T21:27:49.769Z,101130.29
2018-08-25T21:30:18.516Z,101135.08
2018-08-25T21:32:47.193Z,101137.63
2018-08-25T21:35:15.705Z,101139.22
2018-08-25T21:37:44.436Z,101139.73
2018-08-25T21:40:12.952Z,101144.16
2018-08-25T21:42:41.677Z,101140.83
2018-08-25T21:45:10.313Z,101144.08
2018-08-25T21:47:38.906Z,101143.53
2018-08-25T21:50:07.970Z,101145.69
2018-08-25T21:52:36.511Z,101149.90
2018-08-25T21:55:05.053Z,101148.23
2018-08-25T21:57:33.664Z,101152.73
2018-08-25T22:00:02.352Z,101164.23
2018-08-25T22:02:31.150Z,101159.09
2018-08-25T22:04:59.678Z,101159.48
2018-08-25T22:07:28.305Z,101168.05
2018-08-25T22:09:56.897Z,101162.08
2018-08-25T22:12:25.396Z,101167.22
2018-08-25T22:14:54.110Z,101175.92
2018-08-25T22:17:22.690Z,101169.92
2018-08-25T22:19:51.163Z,101172.82
2018-08-25T22:22:19.696Z,101173.55
2018-08-25T22:24:48.380Z,101176.00
2018-08-25T22:27:17.456Z,101176.23
2018-08-25T22:29:46.073Z,101182.56
2018-08-25T22:32:15.832Z,101185.43
2018-08-25T22:34:44.295Z,101188.26
2018-08-25T22:37:13.192Z,101191.71
2018-08-25T22:39:41.714Z,101195.05
2018-08-25T22:42:10.203Z,101201.44
2018-08-25T22:44:38.734Z,101205.88
2018-08-25T22:47:07.278Z,101197.33
2018-08-25T22:49:35.817Z,101195.89
2018-08-25T22:52:04.473Z,101193.70
2018-08-25T22:54:32.977Z,101194.25
2018-08-25T22:57:01.555Z,101195.60
2018-08-25T22:59:30.465Z,101204.75
2018-08-25T23:01:59.040Z,101201.76
2018-08-25T23:04:27.923Z,101197.36
2018-08-25T23:06:56.447Z,101198.11
2018-08-25T23:09:25.523Z,101193.39
2018-08-25T23:11:54.125Z,101190.59
2018-08-25T23:14:22.945Z,101193.13
2018-08-25T23:16:51.419Z,101193.47
2018-08-25T23:19:19.941Z,101189.84
2018-08-25T23:21:48.575Z,101196.11
2018-08-25T23:24:17.103Z,101205.16
2018-08-25T23:26:45.590Z,101210.98
2018-08-25T23:29:14.092Z,101203.05
2018-08-25T23:31:42.738Z,101206.98
2018-08-25T23:34:11.227Z,101214.46
2018-08-25T23:36:39.832Z,101206.09
2018-08-25T23:39:09.460Z,101207.34
2018-08-25T23:41:38.040Z,101203.33
2018-08-25T23:44:06.709Z,101200.02
2018-08-25T23:46:35.305Z,101200.45
2018-08-25T23:49:04.090Z,101200.87
2018-08-25T23:51:32.678Z,101200.19
2018-08-25T23:54:01.232Z,101204.23
2018-08-25T23:56:29.746Z,101204.83
2018-08-25T23:58:58.307Z,101198.09
